Questo sito utilizza i cookie per fornire la migliore esperienza di navigazione possibile. Continuando a utilizzare questo sito senza modificare le impostazioni dei cookie o cliccando su "Accetto" permetti il loro utilizzo.

Preferenzecookies

Meteo

28/05/2022TempoProb.Precip.Temp.(°C)Umidità(%)Vento(km/h)Raffiche(km/h)
02:00 Coperto - 28 12 16 36
05:00 Nuvoloso - 26 20 7 34
08:00 Sereno - 25 27 14 38
11:00 Sereno - 28 28 16 41
14:00 Nuvoloso 20% 23 59 11 47
17:00 Molto nuvoloso con pioggia debole 80% 23 59 7 29
20:00 Nuvoloso 40% 20 75 3 18
23:00 Molto nuvoloso 10% 18 78 3 9
29/05/2022TempoProb.Precip.Temp.(°C)Umidità(%)Vento(km/h)Raffiche(km/h)
02:00 Coperto con pioggia moderata 30% 17 89 1 47
05:00 Coperto con temporale 50% 17 87 3 43
08:00 Molto nuvoloso con pioggia moderata 70% 18 82 3 40
11:00 Coperto con temporale 90% 18 87 3 43
14:00 Coperto con pioggia moderata 50% 18 84 5 41
17:00 Sereno - 21 70 5 20
20:00 Sereno - 19 82 1 18
23:00 Molto nuvoloso - 17 93 7 16
30/05/2022TempoProb.Precip.Temp.(°C)Umidità(%)Vento(km/h)Raffiche(km/h)
02:00 Sereno - 17 82 7 16
05:00 Sereno - 17 82 5 16
08:00 Sereno - 19 76 3 13
11:00 Sereno - 23 61 7 20
14:00 Sereno - 25 54 7 20
17:00 Sereno - 24 49 5 20
20:00 Sereno - 23 26 3 13
Note a riguardo

Aggiornamento pagina: 28/05/2022 00:47 UTC.

Logo Meteo Aeronautica Militare
A cura del Servizio Meteorologico dell'Aeronautica Militare

Leggi anche